Time;durP1;ratioP1;P1;durP2;ratioP2;P2;SDS_P1;SDS_P2;PMS_P1;PMS_P2;Temp;Humidity;BMP_temperature;BMP_pressure;BME280_temperature;BME280_humidity;BME280_pressure;Samples;Min_cycle;Max_cycle;Signal;HPM_P1;HPM_P2
2023/03/04 00:00:16;;;;;;;8.82;6.60;;;9.60;99.90;;;;;;4917214;29;20403;-71
2023/03/04 00:02:43;;;;;;;9.93;7.28;;;9.30;99.90;;;;;;4932685;29;20052;-69
2023/03/04 00:05:10;;;;;;;38.88;22.75;;;9.40;99.90;;;;;;4933843;29;20741;-69
2023/03/04 00:07:37;;;;;;;67.05;39.25;;;9.50;99.90;;;;;;4933938;29;20043;-68
2023/03/04 00:10:05;;;;;;;15.05;11.40;;;9.60;99.90;;;;;;4931521;29;20046;-69
2023/03/04 00:12:32;;;;;;;11.23;7.65;;;9.30;99.90;;;;;;4932403;29;20036;-69
2023/03/04 00:15:00;;;;;;;9.25;7.47;;;9.40;99.90;;;;;;4933446;29;20131;-68
2023/03/04 00:17:28;;;;;;;10.98;7.28;;;9.40;99.90;;;;;;4933652;29;20039;-70
2023/03/04 00:19:56;;;;;;;10.68;7.55;;;9.30;99.90;;;;;;4929809;29;20487;-69
2023/03/04 00:22:23;;;;;;;11.52;7.88;;;9.40;99.90;;;;;;4933540;29;20035;-69
2023/03/04 00:24:51;;;;;;;8.85;7.93;;;9.30;99.90;;;;;;4932554;29;20558;-68
2023/03/04 00:27:18;;;;;;;12.55;8.13;;;9.30;99.90;;;;;;4914811;29;20052;-68
2023/03/04 00:29:45;;;;;;;12.20;7.60;;;9.30;99.90;;;;;;4931703;29;20028;-68
2023/03/04 00:32:15;;;;;;;11.82;8.02;;;9.30;99.90;;;;;;4932255;29;20070;-70
2023/03/04 00:34:42;;;;;;;11.77;8.10;;;9.20;99.90;;;;;;4915185;29;20487;-68
2023/03/04 00:37:09;;;;;;;11.57;8.38;;;9.20;99.90;;;;;;4931630;29;20448;-68
2023/03/04 00:39:37;;;;;;;12.25;8.73;;;9.20;99.90;;;;;;4930801;29;20044;-68
2023/03/04 00:42:04;;;;;;;11.70;8.40;;;9.10;99.90;;;;;;4913292;29;20110;-68
2023/03/04 00:44:32;;;;;;;13.70;8.40;;;9.20;99.90;;;;;;4914393;29;20036;-68
2023/03/04 00:47:00;;;;;;;11.88;7.90;;;9.10;99.90;;;;;;4915127;29;20143;-68
2023/03/04 00:49:27;;;;;;;10.90;8.43;;;9.10;99.90;;;;;;4932037;29;20038;-69
2023/03/04 00:51:54;;;;;;;11.75;8.88;;;9.00;99.90;;;;;;4933664;29;20063;-68
2023/03/04 00:54:21;;;;;;;13.30;8.85;;;9.00;99.90;;;;;;4916070;29;20044;-69
2023/03/04 00:56:49;;;;;;;16.83;8.68;;;9.00;99.90;;;;;;4897975;29;20087;-72
2023/03/04 00:59:16;;;;;;;14.32;8.50;;;9.20;99.90;;;;;;4927537;29;20039;-71
2023/03/04 01:01:43;;;;;;;12.45;9.07;;;9.30;99.90;;;;;;4910965;29;20510;-70
2023/03/04 01:04:11;;;;;;;13.05;8.43;;;9.30;99.90;;;;;;4933144;29;20424;-70
2023/03/04 01:06:38;;;;;;;14.90;8.90;;;9.20;99.90;;;;;;4916445;29;20051;-71
2023/03/04 01:09:07;;;;;;;12.90;9.13;;;9.20;99.90;;;;;;4915452;29;20066;-70
2023/03/04 01:11:34;;;;;;;17.10;9.23;;;9.10;99.90;;;;;;4915438;29;20044;-69
2023/03/04 01:14:01;;;;;;;13.10;8.70;;;8.90;99.90;;;;;;4913266;29;20058;-68
2023/03/04 01:16:29;;;;;;;14.35;9.32;;;8.90;99.90;;;;;;4907562;29;20039;-69
2023/03/04 01:18:56;;;;;;;13.70;8.77;;;8.80;99.90;;;;;;4900459;29;20129;-69
2023/03/04 01:21:24;;;;;;;12.75;9.05;;;8.90;99.90;;;;;;4932953;29;20048;-69
2023/03/04 01:23:51;;;;;;;17.27;9.98;;;8.90;99.90;;;;;;4931026;29;20043;-69
2023/03/04 01:26:18;;;;;;;13.85;9.68;;;8.90;99.90;;;;;;4900174;29;20514;-68
2023/03/04 01:28:45;;;;;;;14.27;9.88;;;8.90;99.90;;;;;;4913872;29;20048;-69
2023/03/04 01:31:13;;;;;;;13.27;9.73;;;8.80;99.90;;;;;;4926504;29;20503;-69
2023/03/04 01:33:40;;;;;;;14.43;9.02;;;8.80;99.90;;;;;;4932538;29;20035;-69
2023/03/04 01:36:07;;;;;;;15.50;8.68;;;9.00;99.90;;;;;;4932469;29;20383;-72
2023/03/04 01:38:35;;;;;;;16.65;9.80;;;9.00;99.90;;;;;;4932344;29;20051;-70
2023/03/04 01:41:02;;;;;;;15.80;9.77;;;9.00;99.90;;;;;;4932969;29;20677;-70
2023/03/04 01:43:31;;;;;;;16.73;9.80;;;9.00;99.90;;;;;;4906775;29;20040;-69
2023/03/04 01:45:58;;;;;;;13.90;9.23;;;8.90;99.90;;;;;;4900102;29;20036;-70
2023/03/04 01:48:35;;;;;;;16.35;10.25;;;8.70;99.90;;;;;;4918160;29;20436;-69
2023/03/04 01:51:04;;;;;;;12.85;9.13;;;8.70;99.90;;;;;;4935514;29;20070;-68
2023/03/04 01:53:32;;;;;;;11.77;9.20;;;8.90;99.90;;;;;;4936929;29;20051;-69
2023/03/04 01:56:10;;;;;;;13.18;9.48;;;8.90;99.90;;;;;;4907118;29;20051;-68
2023/03/04 01:58:38;;;;;;;12.95;9.15;;;8.90;99.90;;;;;;4904087;29;20040;-68
2023/03/04 02:01:05;;;;;;;15.98;10.18;;;8.90;99.90;;;;;;4919779;29;20046;-68
2023/03/04 02:03:33;;;;;;;18.33;11.98;;;8.90;99.90;;;;;;4917103;29;20054;-69
2023/03/04 02:06:00;;;;;;;12.35;9.07;;;9.00;99.90;;;;;;4908675;29;20092;-69
2023/03/04 02:08:28;;;;;;;15.27;9.35;;;8.90;99.90;;;;;;4919226;29;20118;-69
2023/03/04 02:10:57;;;;;;;11.35;8.48;;;9.00;99.90;;;;;;4913813;29;20074;-68
2023/03/04 02:13:24;;;;;;;12.20;8.95;;;8.90;99.90;;;;;;4930023;29;20108;-71
2023/03/04 02:15:52;;;;;;;13.23;8.90;;;9.00;99.90;;;;;;4928283;29;20040;-69
2023/03/04 02:18:25;;;;;;;13.52;9.35;;;8.90;99.90;;;;;;4930673;29;20420;-69
2023/03/04 02:21:14;;;;;;;13.70;9.43;;;9.00;99.90;;;;;;4924518;29;20039;-69
2023/03/04 02:23:51;;;;;;;14.18;8.55;;;9.00;99.90;;;;;;4930246;29;20040;-70
2023/03/04 02:26:21;;;;;;;12.40;8.38;;;8.90;99.90;;;;;;4929566;29;20102;-70
2023/03/04 02:28:51;;;;;;;11.38;8.10;;;8.90;99.90;;;;;;4934612;29;20039;-70
2023/03/04 02:31:28;;;;;;;10.27;8.00;;;8.90;99.90;;;;;;4935835;29;20074;-70
2023/03/04 02:34:03;;;;;;;11.07;8.75;;;8.80;99.90;;;;;;4935807;29;20048;-70
2023/03/04 02:36:31;;;;;;;11.57;7.93;;;8.80;99.90;;;;;;4935832;29;20131;-68
2023/03/04 02:39:09;;;;;;;12.30;8.80;;;8.70;99.90;;;;;;4935546;29;20044;-68
2023/03/04 02:41:37;;;;;;;11.85;8.15;;;8.80;99.90;;;;;;4935733;29;20063;-71
2023/03/04 02:44:15;;;;;;;12.07;8.75;;;8.80;99.90;;;;;;4928695;29;20039;-70
2023/03/04 02:46:43;;;;;;;13.07;8.30;;;8.90;99.90;;;;;;4935519;29;20114;-70
2023/03/04 02:49:11;;;;;;;10.95;8.05;;;8.70;99.90;;;;;;4934891;29;20066;-70
2023/03/04 02:51:39;;;;;;;12.75;7.85;;;8.80;99.90;;;;;;4935219;29;21172;-70
2023/03/04 02:54:20;;;;;;;12.57;8.60;;;8.70;99.90;;;;;;4934770;29;20091;-68
2023/03/04 02:56:51;;;;;;;12.63;8.75;;;8.80;99.90;;;;;;4933128;29;20391;-70
2023/03/04 02:59:20;;;;;;;12.10;7.75;;;8.90;99.90;;;;;;4917291;29;20644;-69
2023/03/04 03:01:48;;;;;;;10.68;7.95;;;8.90;99.90;;;;;;4935103;29;20047;-70
2023/03/04 03:04:16;;;;;;;11.35;8.18;;;8.90;99.90;;;;;;4932611;29;20031;-71
2023/03/04 03:06:44;;;;;;;12.85;8.50;;;8.90;99.90;;;;;;4927231;29;20048;-70
2023/03/04 03:09:12;;;;;;;13.35;9.38;;;8.90;99.90;;;;;;4931861;29;20062;-70
2023/03/04 03:11:39;;;;;;;13.05;8.73;;;9.00;99.90;;;;;;4922810;29;20056;-70
2023/03/04 03:14:07;;;;;;;9.55;7.55;;;9.00;99.90;;;;;;4933810;29;20043;-70
2023/03/04 03:16:34;;;;;;;11.57;7.70;;;9.00;99.90;;;;;;4917845;29;20049;-70
2023/03/04 03:19:02;;;;;;;9.73;7.53;;;8.80;99.90;;;;;;4933108;29;20099;-70
2023/03/04 03:21:29;;;;;;;13.10;7.72;;;8.70;99.90;;;;;;4934920;29;20031;-70
2023/03/04 03:24:15;;;;;;;12.85;8.13;;;8.90;99.90;;;;;;4933045;29;20112;-69
2023/03/04 03:26:42;;;;;;;10.75;6.95;;;8.90;99.90;;;;;;4925655;29;20043;-70
2023/03/04 03:29:10;;;;;;;11.07;7.68;;;8.80;99.90;;;;;;4902136;29;20384;-71
2023/03/04 03:31:37;;;;;;;9.13;7.28;;;9.00;99.90;;;;;;4935175;29;20494;-71
2023/03/04 03:34:04;;;;;;;12.80;7.82;;;9.10;99.90;;;;;;4933229;29;20102;-71
2023/03/04 03:36:31;;;;;;;8.98;6.80;;;9.00;99.90;;;;;;4924334;29;20170;-71
2023/03/04 03:38:59;;;;;;;11.93;7.18;;;9.00;99.90;;;;;;4934355;29;20047;-70
2023/03/04 03:41:26;;;;;;;14.02;7.65;;;8.90;99.90;;;;;;4934155;29;20035;-70
2023/03/04 03:43:53;;;;;;;9.65;6.97;;;9.00;99.90;;;;;;4921669;29;20032;-69
2023/03/04 03:46:20;;;;;;;10.45;7.47;;;9.00;99.90;;;;;;4917533;29;20047;-70
2023/03/04 03:48:48;;;;;;;9.02;6.95;;;9.10;99.90;;;;;;4915911;29;20043;-70
2023/03/04 03:51:15;;;;;;;9.73;7.07;;;9.00;99.90;;;;;;4933497;29;20043;-70
2023/03/04 03:53:42;;;;;;;9.65;7.38;;;9.00;99.90;;;;;;4931606;29;20032;-70
2023/03/04 03:56:09;;;;;;;9.85;7.13;;;9.00;99.90;;;;;;4932433;29;20031;-70
2023/03/04 03:58:37;;;;;;;10.27;7.10;;;9.00;99.90;;;;;;4916435;29;20403;-71
2023/03/04 04:01:04;;;;;;;10.35;7.38;;;9.10;99.90;;;;;;4931727;29;20495;-69
2023/03/04 04:03:31;;;;;;;13.10;7.22;;;9.00;99.90;;;;;;4934462;29;20040;-70
2023/03/04 04:05:58;;;;;;;12.20;7.82;;;9.00;99.90;;;;;;4899282;29;20502;-70
2023/03/04 04:08:26;;;;;;;9.82;7.07;;;8.90;99.90;;;;;;4932935;29;20404;-70
2023/03/04 04:10:53;;;;;;;11.50;7.60;;;8.90;99.90;;;;;;4929469;29;20036;-70
2023/03/04 04:13:20;;;;;;;9.38;7.05;;;9.00;99.90;;;;;;4912140;29;20039;-70
2023/03/04 04:15:49;;;;;;;11.18;7.10;;;9.00;99.90;;;;;;4915754;29;20046;-70
2023/03/04 04:18:17;;;;;;;10.38;6.65;;;9.00;99.90;;;;;;4932888;29;20040;-70
2023/03/04 04:20:45;;;;;;;10.70;6.80;;;9.10;99.90;;;;;;4916585;29;20056;-70
2023/03/04 04:23:12;;;;;;;14.18;8.00;;;9.00;99.90;;;;;;4932429;29;20135;-69
2023/03/04 04:25:39;;;;;;;10.02;7.13;;;9.00;99.90;;;;;;4930864;29;20065;-70
2023/03/04 04:28:07;;;;;;;9.52;7.00;;;9.10;99.90;;;;;;4927344;29;20043;-68
2023/03/04 04:30:34;;;;;;;11.45;7.45;;;9.10;99.90;;;;;;4929823;29;20048;-71
2023/03/04 04:33:03;;;;;;;9.45;7.15;;;9.10;99.90;;;;;;4898425;29;20040;-70
2023/03/04 04:35:33;;;;;;;10.18;7.05;;;9.10;99.90;;;;;;4928283;29;20036;-70
2023/03/04 04:38:01;;;;;;;12.43;7.15;;;9.10;99.90;;;;;;4916887;29;20051;-70
2023/03/04 04:40:28;;;;;;;8.73;6.70;;;9.00;99.90;;;;;;4933011;29;20051;-71
2023/03/04 04:42:55;;;;;;;9.38;6.70;;;9.00;99.90;;;;;;4915659;29;20594;-70
2023/03/04 04:45:23;;;;;;;9.80;7.18;;;8.90;99.90;;;;;;4932744;29;20044;-71
2023/03/04 04:47:52;;;;;;;11.25;6.65;;;9.00;99.90;;;;;;4933482;29;20043;-70
2023/03/04 04:50:19;;;;;;;8.55;6.85;;;8.90;99.90;;;;;;4917575;29;20071;-70
2023/03/04 04:52:46;;;;;;;13.00;6.97;;;8.80;99.90;;;;;;4902224;29;20046;-70
2023/03/04 04:55:14;;;;;;;11.38;7.82;;;8.90;99.90;;;;;;4916718;29;20432;-70
2023/03/04 04:57:41;;;;;;;10.93;7.78;;;8.90;99.90;;;;;;4929146;29;20070;-70
2023/03/04 05:00:09;;;;;;;12.60;6.72;;;9.00;99.90;;;;;;4933617;29;20038;-71
2023/03/04 05:02:37;;;;;;;12.93;7.47;;;9.10;99.90;;;;;;4928809;29;20152;-71
2023/03/04 05:05:05;;;;;;;10.77;7.20;;;8.90;99.90;;;;;;4933369;29;20044;-70
2023/03/04 05:07:34;;;;;;;10.75;7.25;;;9.00;99.90;;;;;;4931560;29;20066;-70
2023/03/04 05:10:01;;;;;;;11.98;6.60;;;9.10;99.90;;;;;;4916537;29;20395;-70
2023/03/04 05:12:28;;;;;;;13.32;7.22;;;9.10;99.90;;;;;;4916351;29;20102;-70
2023/03/04 05:14:56;;;;;;;9.82;6.75;;;9.10;99.90;;;;;;4916336;29;20391;-72
2023/03/04 05:17:23;;;;;;;11.07;7.00;;;9.10;99.90;;;;;;4933078;29;20548;-71
2023/03/04 05:19:50;;;;;;;11.82;7.10;;;9.00;99.90;;;;;;4933444;29;20043;-70
2023/03/04 05:22:17;;;;;;;11.90;6.85;;;8.90;99.90;;;;;;4912698;29;20040;-71
2023/03/04 05:24:46;;;;;;;12.90;6.85;;;8.90;99.90;;;;;;4921581;29;20043;-68
2023/03/04 05:27:13;;;;;;;14.93;7.20;;;8.90;99.90;;;;;;4934608;29;20059;-70
2023/03/04 05:29:43;;;;;;;9.73;7.03;;;9.00;99.90;;;;;;4935873;29;20040;-70
2023/03/04 05:32:10;;;;;;;10.20;6.97;;;9.00;99.90;;;;;;4934717;29;20050;-68
2023/03/04 05:34:38;;;;;;;9.18;6.95;;;9.00;99.90;;;;;;4937242;29;20087;-70
2023/03/04 05:37:05;;;;;;;12.30;7.55;;;8.90;99.90;;;;;;4936286;29;20070;-70
2023/03/04 05:39:32;;;;;;;10.40;7.60;;;8.90;99.90;;;;;;4919380;29;20047;-67
2023/03/04 05:42:00;;;;;;;10.68;7.28;;;8.80;99.90;;;;;;4903964;29;20115;-70
2023/03/04 05:44:27;;;;;;;11.88;8.20;;;8.90;99.90;;;;;;4936301;29;20107;-70
2023/03/04 05:46:54;;;;;;;15.68;7.53;;;8.90;99.90;;;;;;4918963;29;20059;-70
2023/03/04 05:49:21;;;;;;;13.55;8.68;;;8.90;99.90;;;;;;4936255;29;20458;-70
2023/03/04 05:51:49;;;;;;;12.93;9.13;;;8.70;99.90;;;;;;4934929;29;20540;-70
2023/03/04 05:54:16;;;;;;;10.77;7.78;;;8.60;99.90;;;;;;4915541;29;20148;-70
2023/03/04 05:56:44;;;;;;;11.18;8.15;;;8.60;99.90;;;;;;4934245;29;20042;-70
2023/03/04 05:59:12;;;;;;;11.73;8.25;;;8.60;99.90;;;;;;4916755;29;20072;-70
2023/03/04 06:01:39;;;;;;;12.18;9.05;;;8.50;99.90;;;;;;4912353;29;20094;-69
2023/03/04 06:04:06;;;;;;;13.68;9.00;;;8.50;99.90;;;;;;4916333;29;20488;-70
2023/03/04 06:06:34;;;;;;;13.55;8.68;;;8.50;99.90;;;;;;4919790;29;20039;-71
2023/03/04 06:09:01;;;;;;;14.55;8.70;;;8.50;99.90;;;;;;4923976;29;20083;-70
2023/03/04 06:11:28;;;;;;;15.30;9.13;;;8.50;99.90;;;;;;4919687;29;20044;-70
2023/03/04 06:13:55;;;;;;;12.18;9.10;;;8.60;99.90;;;;;;4926537;29;20036;-70
2023/03/04 06:16:23;;;;;;;11.98;7.75;;;8.60;99.90;;;;;;4918271;29;20071;-69
2023/03/04 06:18:50;;;;;;;11.20;7.97;;;8.60;99.90;;;;;;4923168;29;20556;-70
2023/03/04 06:21:18;;;;;;;13.15;7.75;;;8.50;99.90;;;;;;4902185;29;20047;-70
2023/03/04 06:23:45;;;;;;;15.23;8.63;;;8.50;99.90;;;;;;4929206;29;20055;-70
2023/03/04 06:26:14;;;;;;;13.30;7.82;;;8.40;99.90;;;;;;4928354;29;20044;-70
2023/03/04 06:28:42;;;;;;;11.68;8.00;;;8.30;99.90;;;;;;4917758;29;20032;-71
2023/03/04 06:31:10;;;;;;;10.93;7.88;;;8.40;99.90;;;;;;4933941;29;20820;-70
2023/03/04 06:33:39;;;;;;;11.27;7.68;;;8.40;99.90;;;;;;4902691;29;20099;-70
2023/03/04 06:36:07;;;;;;;10.77;7.75;;;8.40;99.90;;;;;;4935005;29;20050;-70
2023/03/04 06:38:34;;;;;;;15.48;7.85;;;8.40;99.90;;;;;;4935101;29;20043;-69
2023/03/04 06:41:07;;;;;;;15.05;7.00;;;8.40;99.90;;;;;;4916117;29;20044;-70
2023/03/04 06:43:35;;;;;;;11.15;7.20;;;8.30;99.90;;;;;;4933007;29;20052;-70
2023/03/04 06:46:02;;;;;;;10.30;6.80;;;8.30;99.90;;;;;;4934636;29;20118;-70
2023/03/04 06:48:29;;;;;;;10.88;6.75;;;8.30;99.90;;;;;;4926536;29;20044;-71
2023/03/04 06:50:56;;;;;;;11.02;7.10;;;8.20;99.90;;;;;;4930362;29;20058;-70
2023/03/04 06:53:24;;;;;;;11.43;7.53;;;8.30;99.90;;;;;;4925992;29;20058;-70
2023/03/04 06:55:51;;;;;;;9.93;7.57;;;8.50;99.90;;;;;;4934401;29;20098;-70
2023/03/04 06:58:18;;;;;;;10.52;7.32;;;8.40;99.90;;;;;;4934709;29;20612;-69
2023/03/04 07:00:46;;;;;;;13.63;7.72;;;8.50;99.90;;;;;;4932119;29;20127;-68
2023/03/04 07:03:13;;;;;;;10.02;6.93;;;8.30;99.90;;;;;;4933193;29;20115;-70
2023/03/04 07:05:42;;;;;;;13.25;7.57;;;8.30;99.90;;;;;;4918007;29;20062;-70
2023/03/04 07:08:10;;;;;;;13.00;8.07;;;8.40;99.90;;;;;;4935506;29;20036;-69
2023/03/04 07:10:37;;;;;;;13.05;8.30;;;8.40;99.90;;;;;;4934549;29;20420;-70
2023/03/04 07:13:04;;;;;;;12.88;7.47;;;8.40;99.90;;;;;;4918554;29;20480;-71
2023/03/04 07:15:32;;;;;;;12.73;7.70;;;8.40;99.90;;;;;;4915209;29;20054;-69
2023/03/04 07:17:59;;;;;;;11.77;7.32;;;8.50;99.90;;;;;;4932598;29;20032;-70
2023/03/04 07:20:26;;;;;;;11.45;7.18;;;8.40;99.90;;;;;;4932740;29;20036;-70
2023/03/04 07:22:57;;;;;;;;;;;8.50;99.90;;;;;;4922897;29;20079;-72
2023/03/04 07:25:24;;;;;;;11.95;8.30;;;8.60;99.90;;;;;;4917633;29;19930;-70
2023/03/04 07:27:51;;;;;;;11.35;8.10;;;8.60;99.90;;;;;;4934053;29;20039;-70
2023/03/04 07:30:19;;;;;;;12.30;8.48;;;8.60;99.90;;;;;;4925334;29;20047;-68
2023/03/04 07:32:46;;;;;;;12.77;8.55;;;8.60;99.90;;;;;;4934248;29;20043;-70
2023/03/04 07:35:13;;;;;;;12.00;8.73;;;8.70;99.90;;;;;;4933467;29;20449;-69
2023/03/04 07:37:41;;;;;;;12.55;8.25;;;8.70;99.90;;;;;;4909785;29;20408;-71
2023/03/04 07:40:11;;;;;;;10.68;7.85;;;8.60;99.90;;;;;;4934233;29;20079;-70
2023/03/04 07:42:38;;;;;;;12.13;7.50;;;8.60;99.90;;;;;;4933670;29;20044;-70
2023/03/04 07:45:06;;;;;;;11.57;7.97;;;8.50;99.90;;;;;;4899389;29;20412;-69
2023/03/04 07:47:34;;;;;;;10.57;7.88;;;8.70;99.90;;;;;;4917019;29;20036;-71
2023/03/04 07:50:01;;;;;;;13.32;8.55;;;8.70;99.90;;;;;;4916865;29;20092;-70
2023/03/04 07:52:28;;;;;;;13.32;7.53;;;8.60;99.90;;;;;;4933022;29;20044;-71
2023/03/04 07:54:56;;;;;;;10.88;7.65;;;8.70;99.90;;;;;;4916112;29;20074;-70
2023/03/04 07:57:23;;;;;;;10.85;7.30;;;8.70;99.90;;;;;;4932972;29;20055;-69
2023/03/04 07:59:50;;;;;;;13.85;8.15;;;8.90;99.90;;;;;;4933585;29;20487;-68
2023/03/04 08:02:18;;;;;;;12.10;7.75;;;9.20;99.90;;;;;;4932536;29;20146;-68
2023/03/04 08:04:45;;;;;;;17.30;9.68;;;9.40;99.90;;;;;;4933829;29;20050;-71
2023/03/04 08:07:12;;;;;;;14.45;8.77;;;9.40;99.90;;;;;;4934398;29;20057;-71
2023/03/04 08:09:40;;;;;;;12.02;8.75;;;9.50;99.90;;;;;;4933567;29;20534;-71
2023/03/04 08:12:07;;;;;;;15.75;9.73;;;9.70;99.90;;;;;;4914132;29;20051;-71
2023/03/04 08:14:35;;;;;;;16.10;10.18;;;9.70;99.90;;;;;;4913416;29;20047;-70
2023/03/04 08:17:02;;;;;;;16.38;11.15;;;9.70;99.90;;;;;;4934142;29;20040;-71
2023/03/04 08:19:29;;;;;;;18.20;10.15;;;9.70;99.90;;;;;;4931957;29;20046;-71
2023/03/04 08:21:57;;;;;;;14.05;9.95;;;9.70;99.90;;;;;;4910893;29;20040;-71
2023/03/04 08:24:24;;;;;;;16.02;9.50;;;9.50;99.90;;;;;;4910064;29;20412;-72
2023/03/04 08:26:51;;;;;;;14.50;9.88;;;9.40;99.90;;;;;;4900219;29;20059;-71
2023/03/04 08:29:21;;;;;;;14.32;10.15;;;9.50;99.90;;;;;;4932949;29;20062;-71
2023/03/04 08:31:50;;;;;;;13.88;10.23;;;9.70;99.90;;;;;;4931779;29;20055;-69
2023/03/04 08:34:24;;;;;;;14.98;10.32;;;9.70;99.90;;;;;;4901066;29;20452;-69
2023/03/04 08:36:52;;;;;;;18.77;11.15;;;9.70;99.90;;;;;;4930795;29;20076;-70
2023/03/04 08:39:19;;;;;;;16.38;10.63;;;9.70;99.90;;;;;;4902553;29;20055;-71
2023/03/04 08:41:50;;;;;;;18.83;10.93;;;9.70;99.90;;;;;;4927637;29;20405;-69
2023/03/04 08:44:19;;;;;;;;;;;9.60;99.90;;;;;;4911485;29;20501;-71
2023/03/04 08:46:51;;;;;;;13.02;9.35;;;9.60;99.90;;;;;;4911482;29;19923;-69
2023/03/04 08:49:18;;;;;;;15.50;9.13;;;9.40;99.90;;;;;;4924526;29;20056;-69
2023/03/04 08:51:45;;;;;;;16.45;9.73;;;9.40;99.90;;;;;;4914658;29;20119;-70
2023/03/04 08:54:13;;;;;;;14.40;9.40;;;9.30;99.90;;;;;;4928249;29;20118;-71
2023/03/04 08:56:40;;;;;;;13.93;9.25;;;9.10;99.90;;;;;;4901153;29;20051;-68
2023/03/04 08:59:07;;;;;;;13.52;9.48;;;9.10;99.90;;;;;;4913033;29;20622;-72
2023/03/04 09:01:35;;;;;;;16.38;10.25;;;9.10;99.90;;;;;;4913967;29;20088;-70
2023/03/04 09:04:02;;;;;;;14.00;9.10;;;9.10;99.90;;;;;;4914539;29;20048;-70
2023/03/04 09:06:29;;;;;;;16.33;10.90;;;9.30;99.90;;;;;;4907892;29;20100;-71
2023/03/04 09:08:57;;;;;;;14.50;9.75;;;9.30;99.90;;;;;;4914388;29;20052;-71
2023/03/04 09:11:24;;;;;;;15.88;10.73;;;9.20;99.90;;;;;;4914068;29;20044;-70
2023/03/04 09:13:52;;;;;;;15.23;10.20;;;9.20;99.90;;;;;;4913979;29;20040;-70
2023/03/04 09:16:19;;;;;;;15.77;9.75;;;9.10;99.90;;;;;;4912535;29;20044;-70
2023/03/04 09:18:47;;;;;;;14.77;9.57;;;9.00;99.90;;;;;;4914334;29;20047;-71
2023/03/04 09:21:14;;;;;;;16.17;10.65;;;9.10;99.90;;;;;;4903860;29;20048;-71
2023/03/04 09:23:41;;;;;;;14.25;10.40;;;9.20;99.90;;;;;;4901833;29;20048;-70
2023/03/04 09:26:18;;;;;;;13.77;9.88;;;9.20;99.90;;;;;;4913402;29;20088;-69
2023/03/04 09:28:48;;;;;;;14.15;10.18;;;9.30;99.90;;;;;;4914162;29;20054;-70
2023/03/04 09:31:15;;;;;;;16.40;10.73;;;9.20;99.90;;;;;;4913276;29;20075;-70
2023/03/04 09:33:42;;;;;;;13.52;9.35;;;9.20;99.90;;;;;;4911797;29;20104;-70
2023/03/04 09:36:12;;;;;;;14.25;9.85;;;9.00;99.90;;;;;;4914143;29;20092;-69
2023/03/04 09:38:40;;;;;;;17.58;9.95;;;9.20;99.90;;;;;;4928411;29;20477;-68
2023/03/04 09:41:14;;;;;;;14.63;10.27;;;9.40;99.90;;;;;;4913591;29;20043;-71
2023/03/04 09:43:43;;;;;;;15.88;10.93;;;9.60;99.90;;;;;;4913840;29;20044;-77
2023/03/04 09:46:17;;;;;;;16.42;10.73;;;9.50;99.90;;;;;;4912121;29;20037;-71
2023/03/04 09:48:48;;;;;;;14.18;9.50;;;9.30;99.90;;;;;;4913823;29;20111;-71
2023/03/04 09:51:20;;;;;;;;;;;9.30;99.90;;;;;;4929134;29;20396;-69
2023/03/04 09:54:10;;;;;;;17.50;10.63;;;9.30;99.90;;;;;;4900175;29;20290;-70
2023/03/04 09:56:38;;;;;;;14.35;10.13;;;9.50;99.90;;;;;;4917830;29;20056;-69
2023/03/04 09:59:29;;;;;;;15.18;10.18;;;9.60;99.90;;;;;;4913975;29;20058;-70
2023/03/04 10:01:59;;;;;;;19.60;10.80;;;9.70;99.90;;;;;;4913949;29;20037;-69
2023/03/04 10:04:30;;;;;;;;;;;9.60;99.90;;;;;;4909330;29;20412;-71
2023/03/04 10:06:59;;;;;;;14.68;10.05;;;9.60;99.90;;;;;;4913431;29;20036;-71
2023/03/04 10:09:40;;;;;;;13.75;9.18;;;9.40;99.90;;;;;;4915399;29;20040;-68
2023/03/04 10:12:14;;;;;;;15.85;9.32;;;9.20;99.90;;;;;;4917045;29;20511;-69
2023/03/04 10:15:24;;;;;;;13.27;9.27;;;9.40;99.90;;;;;;4915676;29;20055;-70
2023/03/04 10:17:55;;;;;;;;;;;9.20;99.90;;;;;;4886286;29;20496;-70
2023/03/04 10:20:29;;;;;;;17.08;11.77;;;9.60;99.90;;;;;;4917366;29;19923;-71
2023/03/04 10:23:09;;;;;;;68.68;40.88;;;9.50;99.90;;;;;;4913576;29;20067;-71
2023/03/04 10:25:41;;;;;;;15.32;11.50;;;9.40;99.90;;;;;;4917141;29;20435;-70
2023/03/04 10:28:16;;;;;;;13.73;9.23;;;9.40;99.90;;;;;;4916519;29;20417;-70
2023/03/04 10:31:05;;;;;;;14.13;9.23;;;9.40;99.90;;;;;;4916905;29;20036;-69
2023/03/04 10:33:35;;;;;;;13.77;9.57;;;9.40;99.90;;;;;;4916528;29;20043;-70
2023/03/04 10:36:23;;;;;;;13.93;8.83;;;9.50;99.90;;;;;;4916818;29;20441;-71
2023/03/04 10:38:59;;;;;;;12.20;8.18;;;9.30;99.90;;;;;;4914346;29;20645;-71
2023/03/04 10:41:29;;;;;;;14.27;9.07;;;9.40;99.90;;;;;;4892133;29;20086;-71
2023/03/04 10:44:02;;;;;;;15.68;9.27;;;9.60;99.90;;;;;;4916624;29;20590;-72
2023/03/04 10:46:31;;;;;;;14.05;9.60;;;9.70;99.90;;;;;;4916852;29;20040;-74
2023/03/04 10:48:58;;;;;;;15.00;9.93;;;9.90;99.90;;;;;;4915924;29;20052;-70
2023/03/04 10:51:28;;;;;;;16.95;10.18;;;9.70;99.90;;;;;;4916021;29;20044;-70
2023/03/04 10:54:19;;;;;;;14.95;9.52;;;9.60;99.90;;;;;;4904242;29;20063;-70
2023/03/04 10:57:12;;;;;;;14.07;9.38;;;9.70;99.90;;;;;;4915996;29;20056;-70
2023/03/04 10:59:42;;;;;;;15.15;9.73;;;9.70;99.90;;;;;;4927652;29;20071;-68
2023/03/04 11:02:25;;;;;;;14.48;10.02;;;9.80;99.90;;;;;;4904697;29;20059;-71
2023/03/04 11:05:07;;;;;;;16.50;9.32;;;9.50;99.90;;;;;;4915041;29;20044;-71
2023/03/04 11:07:40;;;;;;;14.05;9.73;;;9.50;99.90;;;;;;4916119;29;20040;-69
2023/03/04 11:10:49;;;;;;;17.38;10.20;;;9.50;99.90;;;;;;4905231;29;20036;-72
2023/03/04 11:13:25;;;;;;;16.20;10.25;;;9.50;99.90;;;;;;4912486;29;20482;-70
2023/03/04 11:15:55;;;;;;;13.43;10.00;;;9.50;99.90;;;;;;4914506;29;20453;-70
2023/03/04 11:18:45;;;;;;;15.88;10.15;;;9.70;99.90;;;;;;4915645;29;20432;-70
2023/03/04 11:21:17;;;;;;;12.30;9.77;;;9.70;99.90;;;;;;4914180;29;20047;-68
2023/03/04 11:23:49;;;;;;;13.63;9.80;;;9.70;99.90;;;;;;4903923;29;20446;-68
2023/03/04 11:26:22;;;;;;;15.02;9.55;;;9.70;99.90;;;;;;4915344;29;20453;-68
2023/03/04 11:29:01;;;;;;;18.23;9.50;;;9.80;99.90;;;;;;4915207;29;20162;-74
2023/03/04 11:31:35;;;;;;;15.57;9.52;;;10.10;99.90;;;;;;4913554;29;20051;-69
2023/03/04 11:34:24;;;;;;;30.40;18.45;;;10.30;99.90;;;;;;4915891;29;20472;-69
2023/03/04 11:37:08;;;;;;;27.13;17.77;;;10.50;99.90;;;;;;4910666;29;20045;-69
2023/03/04 11:39:39;;;;;;;18.80;11.10;;;10.30;99.90;;;;;;4898788;29;20425;-69
2023/03/04 11:42:33;;;;;;;19.92;13.05;;;10.00;99.90;;;;;;4914353;29;20091;-73
2023/03/04 11:45:01;;;;;;;15.98;10.15;;;10.00;99.90;;;;;;4915671;29;20044;-71
2023/03/04 11:47:40;;;;;;;12.73;9.25;;;9.90;99.90;;;;;;4914363;29;20123;-69
2023/03/04 11:50:28;;;;;;;15.60;9.45;;;10.00;99.90;;;;;;4914601;29;20055;-68
2023/03/04 11:53:43;;;;;;;14.73;10.15;;;9.90;99.90;;;;;;4919895;29;20055;-68
2023/03/04 11:56:17;;;;;;;13.93;9.50;;;10.10;99.90;;;;;;4905025;29;20060;-71
2023/03/04 11:58:57;;;;;;;13.18;9.93;;;10.40;99.90;;;;;;4903441;29;20048;-70
2023/03/04 12:01:30;;;;;;;16.02;9.82;;;10.60;99.90;;;;;;4915163;29;20044;-71
2023/03/04 12:04:16;;;;;;;19.45;9.55;;;10.70;99.90;;;;;;4918499;29;20051;-71
2023/03/04 12:06:53;;;;;;;16.10;10.07;;;10.60;99.90;;;;;;4912124;29;20059;-71
2023/03/04 12:09:29;;;;;;;14.00;9.35;;;10.50;99.90;;;;;;4913131;29;20099;-70
2023/03/04 12:12:30;;;;;;;15.02;9.65;;;10.30;99.90;;;;;;4920205;29;20055;-72
2023/03/04 12:15:25;;;;;;;16.77;10.38;;;10.40;99.90;;;;;;4915041;29;20461;-71
2023/03/04 12:17:52;;;;;;;15.27;9.20;;;10.70;99.90;;;;;;4914339;29;20036;-69
2023/03/04 12:20:46;;;;;;;17.48;10.02;;;10.90;99.90;;;;;;4907857;29;20048;-70
2023/03/04 12:23:28;;;;;;;16.92;10.13;;;10.90;99.90;;;;;;4902378;29;20429;-71
2023/03/04 12:25:59;;;;;;;16.80;10.75;;;10.90;99.90;;;;;;4915456;29;20104;-71
2023/03/04 12:28:39;;;;;;;17.33;12.07;;;10.90;99.90;;;;;;4902609;29;20047;-71
2023/03/04 12:31:15;;;;;;;17.92;12.18;;;11.00;99.90;;;;;;4908664;29;20048;-71
2023/03/04 12:34:06;;;;;;;17.67;11.52;;;10.70;99.90;;;;;;4914392;29;20547;-69
2023/03/04 12:36:45;;;;;;;16.73;11.27;;;10.20;99.90;;;;;;4915087;29;20048;-69
2023/03/04 12:39:21;;;;;;;16.98;11.88;;;10.30;99.90;;;;;;4929698;29;20047;-68
2023/03/04 12:41:54;;;;;;;16.08;11.50;;;10.30;99.90;;;;;;4933461;29;20055;-71
2023/03/04 12:44:22;;;;;;;14.27;10.90;;;10.40;99.90;;;;;;4933160;29;20052;-68
2023/03/04 12:47:20;;;;;;;15.90;12.05;;;10.50;99.90;;;;;;4933509;29;20040;-68
2023/03/04 12:50:32;;;;;;;16.63;10.75;;;10.50;99.90;;;;;;4927079;29;20055;-70
2023/03/04 12:53:26;;;;;;;13.05;9.52;;;10.40;99.90;;;;;;4884073;29;20055;-68
2023/03/04 12:55:56;;;;;;;12.77;9.13;;;10.30;99.90;;;;;;4930413;29;20538;-70
2023/03/04 12:58:26;;;;;;;13.32;9.57;;;10.10;99.90;;;;;;4931712;29;20055;-70
2023/03/04 13:01:03;;;;;;;13.13;9.73;;;10.10;99.90;;;;;;4925528;29;20510;-70
2023/03/04 13:03:36;;;;;;;15.45;9.63;;;10.20;99.90;;;;;;4908639;29;20044;-71